This is the latest recevied weather packets stored in our database for station/object K0RGI. If no packets are shown the sender has not sent any weather packets the latest 1 day(s).
| Time | Temp. | Humidity | Pressure | Rain* | Wind** | Luminosity | Snow |
|---|---|---|---|---|---|---|---|
| 1778037230 | 22.22° C | 48% | 1013 hPa | 0 mm | - | 0 W/m² | - |
| 1778036626 | 22.22° C | 48% | 1013.1 hPa | 0 mm | - | 0 W/m² | - |
| 1778036024 | 21.67° C | 49% | 1013.4 hPa | 0 mm | - | 0 W/m² | - |
| 1778035424 | 21.67° C | 50% | 1013.2 hPa | 0 mm | - | 0 W/m² | - |
| 1778034823 | 21.67° C | 50% | 1013 hPa | 0 mm | - | 0 W/m² | - |
| 1778034223 | 21.67° C | 50% | 1012.8 hPa | 0 mm | - | 0 W/m² | - |
| 1778033018 | 21.11° C | 50% | 1013.4 hPa | 0 mm | - | 0 W/m² | - |
| 1778032413 | 21.11° C | 50% | 1013.2 hPa | 0 mm | - | 0 W/m² | - |
| 1778031812 | 21.11° C | 49% | 1012.7 hPa | 0 mm | - | 0 W/m² | - |
| 1778031212 | 21.11° C | 49% | 1012.5 hPa | 0 mm | - | 0 W/m² | - |
| 1778030612 | 21.11° C | 49% | 1012.7 hPa | 0 mm | - | 0 W/m² | - |
| 1778030011 | 21.67° C | 49% | 1012.6 hPa | 0 mm | - | 0 W/m² | - |
| 1778029406 | 21.67° C | 48% | 1012.4 hPa | 0 mm | - | 0 W/m² | - |
| 1778028205 | 22.22° C | 48% | 1012.7 hPa | 0 mm | - | 0 W/m² | - |
| 1778027603 | 22.22° C | 46% | 1012.9 hPa | 0 mm | - | 0 W/m² | - |
| 1778026401 | 22.78° C | 45% | 1012.6 hPa | 0 mm | - | 3 W/m² | - |
| 1778025802 | 22.78° C | 45% | 1012.8 hPa | 0 mm | - | 8 W/m² | - |
| 1778023997 | 23.33° C | 42% | 1012.7 hPa | 0 mm | - | 24 W/m² | - |
| 1778016768 | 24.44° C | 48% | 1012.8 hPa | 0 mm | - | 161 W/m² | - |
| 1778016167 | 24.44° C | 47% | 1013 hPa | 0 mm | - | 137 W/m² | - |
| 1778013161 | 25° C | 43% | 1013.4 hPa | 0 mm | - | 217 W/m² | - |
| 1778011959 | 25.56° C | 42% | 1013.8 hPa | 0 mm | - | 534 W/m² | - |
| 1778010753 | 25° C | 41% | 1014.2 hPa | 0 mm | - | 517 W/m² | - |
* Rain latest hour (hover to see other rain measurements)
** Current wind speed in m/s (hover to see current wind gust speed)